Time;durP1;ratioP1;P1;durP2;ratioP2;P2;SDS_P1;SDS_P2;PMS_P1;PMS_P2;Temp;Humidity;BMP_temperature;BMP_pressure;BME280_temperature;BME280_humidity;BME280_pressure;Samples;Min_cycle;Max_cycle;Signal;HPM_P1;HPM_P2
2023/08/18 00:01:29;;;;;;;5.72;2.28;;;17.10;99.90;;;;;;5098232;28;20055;-58
2023/08/18 00:03:56;;;;;;;7.50;2.38;;;17.00;99.90;;;;;;5099810;28;20548;-57
2023/08/18 00:06:22;;;;;;;4.32;2.10;;;16.90;99.90;;;;;;5098691;28;20074;-56
2023/08/18 00:08:48;;;;;;;6.45;2.35;;;17.00;99.90;;;;;;5099175;28;20044;-58
2023/08/18 00:11:13;;;;;;;4.60;1.95;;;16.90;99.90;;;;;;5099533;28;20047;-57
2023/08/18 00:13:39;;;;;;;6.07;2.47;;;16.90;99.90;;;;;;5080007;28;20088;-58
2023/08/18 00:16:05;;;;;;;5.57;2.45;;;16.90;99.90;;;;;;5081863;28;20048;-57
2023/08/18 00:18:30;;;;;;;4.65;1.98;;;16.90;99.90;;;;;;5097573;28;20565;-57
2023/08/18 00:20:56;;;;;;;5.50;2.25;;;16.70;99.90;;;;;;5099573;28;20104;-58
2023/08/18 00:23:23;;;;;;;5.80;2.50;;;16.80;99.90;;;;;;5098064;28;20230;-58
2023/08/18 00:25:49;;;;;;;4.65;2.20;;;16.60;99.90;;;;;;5098841;28;20040;-58
2023/08/18 00:28:15;;;;;;;5.05;2.30;;;16.60;99.90;;;;;;5099526;28;20048;-57
2023/08/18 00:30:40;;;;;;;5.60;2.60;;;16.60;99.90;;;;;;5097943;28;20052;-57
2023/08/18 00:33:06;;;;;;;5.38;2.30;;;16.60;99.90;;;;;;5081434;28;20047;-58
2023/08/18 00:35:32;;;;;;;5.30;2.63;;;16.60;99.90;;;;;;5097157;28;20084;-57
2023/08/18 00:37:57;;;;;;;6.22;2.67;;;16.60;99.90;;;;;;5099439;28;20044;-58
2023/08/18 00:40:23;;;;;;;5.03;2.40;;;16.60;99.90;;;;;;5097598;28;20100;-58
2023/08/18 00:42:49;;;;;;;5.47;2.45;;;16.50;99.90;;;;;;5099127;28;20050;-58
2023/08/18 00:45:15;;;;;;;5.72;2.40;;;16.50;99.90;;;;;;5098764;28;20044;-58
2023/08/18 00:47:42;;;;;;;6.07;2.45;;;16.60;99.90;;;;;;5097703;28;20041;-57
2023/08/18 00:50:10;;;;;;;6.35;2.50;;;16.50;99.90;;;;;;5081096;28;20070;-58
2023/08/18 00:52:37;;;;;;;6.00;2.50;;;16.50;99.90;;;;;;5078823;28;20040;-58
2023/08/18 00:55:04;;;;;;;5.47;2.60;;;16.40;99.90;;;;;;5098718;28;20040;-58
2023/08/18 00:57:31;;;;;;;5.70;2.80;;;16.40;99.90;;;;;;5077184;28;20049;-58
2023/08/18 00:59:57;;;;;;;6.75;2.67;;;16.40;99.90;;;;;;5078302;28;20120;-58
2023/08/18 01:02:23;;;;;;;5.63;2.42;;;16.40;99.90;;;;;;5078436;28;20117;-57
2023/08/18 01:04:49;;;;;;;5.15;2.40;;;16.40;99.90;;;;;;5096127;28;20100;-57
2023/08/18 01:07:15;;;;;;;6.22;2.80;;;16.40;99.90;;;;;;5099421;28;20043;-57
2023/08/18 01:09:41;;;;;;;5.80;2.33;;;16.30;99.90;;;;;;5096810;28;20051;-56
2023/08/18 01:12:26;;;;;;;6.88;3.20;;;16.30;99.90;;;;;;5098932;28;20078;-57
2023/08/18 01:15:00;;;;;;;7.70;2.58;;;16.30;99.90;;;;;;5097454;28;20052;-56
2023/08/18 01:17:35;;;;;;;6.38;2.90;;;16.20;99.90;;;;;;5097482;28;20044;-57
2023/08/18 01:20:03;;;;;;;5.03;2.38;;;16.30;99.90;;;;;;5098836;28;20054;-57
2023/08/18 01:22:29;;;;;;;5.45;2.63;;;16.20;99.90;;;;;;5096616;28;20122;-55
2023/08/18 01:25:00;;;;;;;7.07;3.03;;;16.30;99.90;;;;;;5098899;28;20040;-56
2023/08/18 01:27:27;;;;;;;6.20;3.08;;;16.20;99.90;;;;;;5079209;28;20059;-56
2023/08/18 01:29:53;;;;;;;6.38;2.65;;;16.30;99.90;;;;;;5098203;28;20040;-56
2023/08/18 01:32:19;;;;;;;5.85;2.70;;;16.30;99.90;;;;;;5097800;28;20040;-54
2023/08/18 01:34:47;;;;;;;5.97;2.75;;;16.40;99.90;;;;;;5096897;28;20595;-56
2023/08/18 01:37:15;;;;;;;5.60;2.67;;;16.40;99.90;;;;;;5099032;28;20181;-56
2023/08/18 01:39:42;;;;;;;6.20;3.20;;;16.30;99.90;;;;;;5096453;28;20048;-56
2023/08/18 01:42:08;;;;;;;5.20;2.67;;;16.40;99.90;;;;;;5098579;28;20097;-56
2023/08/18 01:44:33;;;;;;;8.18;3.10;;;16.40;99.90;;;;;;5096657;28;20048;-56
2023/08/18 01:46:59;;;;;;;6.32;2.88;;;16.50;99.90;;;;;;5100784;28;20028;-56
2023/08/18 01:49:25;;;;;;;6.70;2.95;;;16.50;99.90;;;;;;5101704;28;20119;-56
2023/08/18 01:51:50;;;;;;;8.50;2.58;;;16.40;99.90;;;;;;5082861;28;20056;-56
2023/08/18 01:54:16;;;;;;;5.80;2.63;;;16.50;99.90;;;;;;5102901;28;20044;-56
2023/08/18 01:56:42;;;;;;;6.00;2.78;;;16.50;99.90;;;;;;5068433;28;20056;-56
2023/08/18 01:59:07;;;;;;;6.13;3.00;;;16.60;99.90;;;;;;5082016;28;20047;-56
2023/08/18 02:01:33;;;;;;;6.43;3.25;;;16.60;99.90;;;;;;5080247;28;20059;-56
2023/08/18 02:03:59;;;;;;;6.88;3.13;;;16.50;99.90;;;;;;5082174;28;20051;-56
2023/08/18 02:06:24;;;;;;;6.60;2.63;;;16.50;99.90;;;;;;5081152;28;20036;-55
2023/08/18 02:08:51;;;;;;;7.43;3.28;;;16.50;99.90;;;;;;5081081;28;20033;-56
2023/08/18 02:11:17;;;;;;;6.85;2.95;;;16.60;99.90;;;;;;5081632;28;20131;-56
2023/08/18 02:13:42;;;;;;;7.90;3.60;;;16.50;99.90;;;;;;5080108;28;20437;-56
2023/08/18 02:16:08;;;;;;;6.28;3.20;;;16.50;99.90;;;;;;5081870;28;20052;-56
2023/08/18 02:18:34;;;;;;;6.22;2.80;;;16.50;99.90;;;;;;5079525;28;20056;-56
2023/08/18 02:21:02;;;;;;;6.22;3.03;;;16.50;99.90;;;;;;5081859;28;20044;-56
2023/08/18 02:23:27;;;;;;;7.78;3.05;;;16.50;99.90;;;;;;5080518;28;20036;-59
2023/08/18 02:26:04;;;;;;;7.35;3.30;;;16.50;99.90;;;;;;5080914;28;20051;-56
2023/08/18 02:28:30;;;;;;;6.43;2.95;;;16.40;99.90;;;;;;5081578;28;20044;-56
2023/08/18 02:31:04;;;;;;;5.63;3.00;;;16.40;99.90;;;;;;5079396;28;20037;-56
2023/08/18 02:33:30;;;;;;;10.05;3.30;;;16.50;99.90;;;;;;5081557;28;20041;-56
2023/08/18 02:35:56;;;;;;;6.05;2.85;;;16.50;99.90;;;;;;5079945;28;20040;-56
2023/08/18 02:38:22;;;;;;;6.32;3.20;;;16.50;99.90;;;;;;5080853;28;20100;-57
2023/08/18 02:40:47;;;;;;;6.20;3.70;;;16.40;99.90;;;;;;5080798;28;20064;-56
2023/08/18 02:43:13;;;;;;;8.70;3.50;;;16.40;99.90;;;;;;5079893;28;20044;-56
2023/08/18 02:45:39;;;;;;;8.25;3.25;;;16.30;99.90;;;;;;5081636;28;20032;-56
2023/08/18 02:48:05;;;;;;;7.28;3.67;;;16.20;99.90;;;;;;5079106;28;20472;-56
2023/08/18 02:50:30;;;;;;;6.93;3.45;;;16.30;99.90;;;;;;5081451;28;20596;-56
2023/08/18 02:53:00;;;;;;;6.97;3.10;;;16.30;99.90;;;;;;5079241;28;20052;-57
2023/08/18 02:55:27;;;;;;;7.75;3.60;;;16.40;99.90;;;;;;5084347;28;20095;-56
2023/08/18 02:57:53;;;;;;;6.25;3.20;;;16.40;99.90;;;;;;5100057;28;20052;-55
2023/08/18 03:00:18;;;;;;;7.97;3.30;;;16.40;99.90;;;;;;5099696;28;20455;-59
2023/08/18 03:02:44;;;;;;;5.78;3.30;;;16.40;99.90;;;;;;5101480;28;20044;-56
2023/08/18 03:05:10;;;;;;;6.65;3.42;;;16.40;99.90;;;;;;5099323;28;20040;-56
2023/08/18 03:07:35;;;;;;;6.90;3.30;;;16.40;99.90;;;;;;5101463;28;20055;-56
2023/08/18 03:10:02;;;;;;;7.80;3.85;;;16.50;99.90;;;;;;5081042;28;20074;-56
2023/08/18 03:12:28;;;;;;;8.68;3.65;;;16.50;99.90;;;;;;5101045;28;20074;-56
2023/08/18 03:14:54;;;;;;;7.95;3.47;;;16.40;99.90;;;;;;5099737;28;20052;-56
2023/08/18 03:17:20;;;;;;;6.60;3.30;;;16.40;99.90;;;;;;5100154;28;20067;-56
2023/08/18 03:19:46;;;;;;;6.40;3.50;;;16.50;99.90;;;;;;5100483;28;20055;-55
2023/08/18 03:22:11;;;;;;;8.10;3.55;;;16.50;99.90;;;;;;5098918;28;20050;-55
2023/08/18 03:24:37;;;;;;;8.98;3.72;;;16.40;99.90;;;;;;5101106;28;20036;-57
2023/08/18 03:27:03;;;;;;;6.07;3.50;;;16.50;99.90;;;;;;5098825;28;20043;-57
2023/08/18 03:29:29;;;;;;;7.50;3.50;;;16.50;99.90;;;;;;5062440;28;20060;-56
2023/08/18 03:31:54;;;;;;;8.80;3.35;;;16.50;99.90;;;;;;5079165;28;20052;-57
2023/08/18 03:34:20;;;;;;;8.25;3.72;;;16.50;99.90;;;;;;5079820;28;20056;-55
2023/08/18 03:36:46;;;;;;;6.97;3.90;;;16.50;99.90;;;;;;5080305;28;20040;-56
2023/08/18 03:39:12;;;;;;;8.77;3.95;;;16.60;99.90;;;;;;5078275;28;20040;-56
2023/08/18 03:41:38;;;;;;;7.53;4.00;;;16.60;99.90;;;;;;5080352;28;20044;-57
2023/08/18 03:44:04;;;;;;;7.78;3.72;;;16.60;99.90;;;;;;5078071;28;20066;-57
2023/08/18 03:46:29;;;;;;;8.25;4.07;;;16.60;99.90;;;;;;5080387;28;20040;-56
2023/08/18 03:48:55;;;;;;;7.95;4.07;;;16.60;99.90;;;;;;5078542;28;20407;-56
2023/08/18 03:51:21;;;;;;;6.75;3.97;;;16.70;99.90;;;;;;5079585;28;20488;-56
2023/08/18 03:53:47;;;;;;;7.07;4.03;;;16.60;99.90;;;;;;5079490;28;20040;-56
2023/08/18 03:56:13;;;;;;;7.65;4.13;;;16.60;99.90;;;;;;5087960;28;20036;-57
2023/08/18 03:58:40;;;;;;;8.50;4.40;;;16.60;99.90;;;;;;5100529;28;20098;-56
2023/08/18 04:01:08;;;;;;;8.43;4.82;;;16.70;99.90;;;;;;5097765;28;20323;-57
2023/08/18 04:03:35;;;;;;;8.10;4.28;;;16.70;99.90;;;;;;5099775;28;20036;-57
2023/08/18 04:06:02;;;;;;;7.55;4.43;;;16.70;99.90;;;;;;5098494;28;20040;-56
2023/08/18 04:08:28;;;;;;;8.00;5.13;;;16.70;99.90;;;;;;5098858;28;20071;-57
2023/08/18 04:10:53;;;;;;;9.60;5.07;;;16.70;99.90;;;;;;5099457;28;20036;-57
2023/08/18 04:13:19;;;;;;;11.43;4.95;;;16.80;99.90;;;;;;5080265;28;20096;-56
2023/08/18 04:15:45;;;;;;;9.00;4.65;;;16.70;99.90;;;;;;5100339;28;20044;-57
2023/08/18 04:18:11;;;;;;;9.02;5.95;;;16.80;99.90;;;;;;5097514;28;20047;-58
2023/08/18 04:20:36;;;;;;;9.90;5.78;;;16.70;99.90;;;;;;5100113;28;20546;-56
2023/08/18 04:23:02;;;;;;;10.13;5.57;;;16.70;99.90;;;;;;5079696;28;20111;-56
2023/08/18 04:25:28;;;;;;;9.05;5.32;;;16.80;99.90;;;;;;5099121;28;20036;-57
2023/08/18 04:27:53;;;;;;;8.70;5.60;;;16.80;99.90;;;;;;5080615;28;20035;-56
2023/08/18 04:30:19;;;;;;;9.52;5.28;;;16.70;99.90;;;;;;5098345;28;20277;-56
2023/08/18 04:32:45;;;;;;;8.02;4.75;;;16.70;99.90;;;;;;5099773;28;20048;-56
2023/08/18 04:35:10;;;;;;;9.43;5.32;;;16.80;99.90;;;;;;5097333;28;20076;-56
2023/08/18 04:37:36;;;;;;;9.15;5.35;;;16.70;99.90;;;;;;5099233;28;20044;-57
2023/08/18 04:40:04;;;;;;;8.95;5.20;;;16.70;99.90;;;;;;5097108;28;20051;-56
2023/08/18 04:42:30;;;;;;;10.10;4.75;;;16.80;99.90;;;;;;5098996;28;20044;-55
2023/08/18 04:44:56;;;;;;;10.65;5.55;;;16.80;99.90;;;;;;5098490;28;20047;-55
2023/08/18 04:47:21;;;;;;;9.52;5.30;;;16.80;99.90;;;;;;5079718;28;20044;-56
2023/08/18 04:49:47;;;;;;;8.50;5.43;;;16.80;99.90;;;;;;5099080;28;20051;-56
2023/08/18 04:52:14;;;;;;;9.63;5.47;;;16.90;99.90;;;;;;5096871;28;20071;-55
2023/08/18 04:54:39;;;;;;;8.43;4.90;;;16.80;99.90;;;;;;5099484;28;20100;-56
2023/08/18 04:57:07;;;;;;;8.60;5.10;;;16.90;99.90;;;;;;5080013;28;20043;-56
2023/08/18 04:59:33;;;;;;;8.05;4.80;;;16.80;99.90;;;;;;5078550;28;20063;-56
2023/08/18 05:01:59;;;;;;;10.57;5.20;;;16.80;99.90;;;;;;5077632;28;20036;-58
2023/08/18 05:04:25;;;;;;;8.23;4.95;;;17.00;99.90;;;;;;5077909;28;20036;-58
2023/08/18 05:06:51;;;;;;;9.65;5.45;;;17.00;99.90;;;;;;5078405;28;20040;-58
2023/08/18 05:09:18;;;;;;;8.23;4.72;;;16.90;99.90;;;;;;5073533;28;20040;-58
2023/08/18 05:11:43;;;;;;;10.23;5.30;;;16.90;99.90;;;;;;5057109;28;20074;-56
2023/08/18 05:14:09;;;;;;;10.00;5.00;;;16.90;99.90;;;;;;5072608;28;20052;-56
2023/08/18 05:16:35;;;;;;;8.38;5.20;;;17.00;99.90;;;;;;5074555;28;20112;-56
2023/08/18 05:19:01;;;;;;;9.65;5.00;;;16.90;99.90;;;;;;5073258;28;20044;-56
2023/08/18 05:21:26;;;;;;;8.50;4.50;;;16.90;99.90;;;;;;5072810;28;20135;-56
2023/08/18 05:23:52;;;;;;;8.68;4.93;;;17.10;99.90;;;;;;5074347;28;20052;-56
2023/08/18 05:26:18;;;;;;;8.70;4.85;;;17.00;99.90;;;;;;5072735;28;20084;-56
2023/08/18 05:28:44;;;;;;;8.52;4.85;;;17.10;99.90;;;;;;5074683;28;20067;-57
2023/08/18 05:31:11;;;;;;;8.02;4.97;;;17.10;99.90;;;;;;5072468;28;20051;-56
2023/08/18 05:33:37;;;;;;;11.48;5.05;;;17.10;99.90;;;;;;5074030;28;20076;-56
2023/08/18 05:36:04;;;;;;;7.80;4.40;;;17.20;99.90;;;;;;5073017;28;20416;-56
2023/08/18 05:38:30;;;;;;;8.38;4.63;;;17.00;99.90;;;;;;5074001;28;20127;-57
2023/08/18 05:41:06;;;;;;;8.05;4.55;;;17.10;99.90;;;;;;5056226;28;20076;-56
2023/08/18 05:43:37;;;;;;;9.57;4.63;;;17.10;99.90;;;;;;5072543;28;20059;-57
2023/08/18 05:46:03;;;;;;;9.75;4.97;;;17.10;99.90;;;;;;5074189;28;20064;-57
2023/08/18 05:48:30;;;;;;;11.13;5.40;;;17.10;99.90;;;;;;5072274;28;20039;-57
2023/08/18 05:50:56;;;;;;;8.07;4.78;;;17.10;99.90;;;;;;5073873;28;20048;-57
2023/08/18 05:53:23;;;;;;;9.57;5.22;;;17.10;99.90;;;;;;5072973;28;20045;-56
2023/08/18 05:55:50;;;;;;;9.40;4.63;;;17.20;99.90;;;;;;5079648;28;20055;-57
2023/08/18 05:58:16;;;;;;;8.20;5.68;;;17.10;99.90;;;;;;5094213;28;20047;-56
2023/08/18 06:00:42;;;;;;;9.90;5.20;;;17.20;99.90;;;;;;5092258;28;20056;-57
2023/08/18 06:03:07;;;;;;;8.45;4.75;;;17.20;99.90;;;;;;5094716;28;20499;-56
2023/08/18 06:05:36;;;;;;;9.25;5.72;;;17.30;99.90;;;;;;5092194;28;20048;-56
2023/08/18 06:08:02;;;;;;;10.60;5.35;;;17.30;99.90;;;;;;5094029;28;20040;-56
2023/08/18 06:10:27;;;;;;;8.88;5.03;;;17.30;99.90;;;;;;5092722;28;20304;-57
2023/08/18 06:12:53;;;;;;;8.85;5.32;;;17.40;99.90;;;;;;5093572;28;20052;-57
2023/08/18 06:15:20;;;;;;;9.27;5.10;;;17.30;99.90;;;;;;5093676;28;20048;-56
2023/08/18 06:17:47;;;;;;;9.48;4.97;;;17.30;99.90;;;;;;5092261;28;20379;-56
2023/08/18 06:20:13;;;;;;;10.80;5.28;;;17.20;99.90;;;;;;5093808;28;20136;-57
2023/08/18 06:22:39;;;;;;;8.77;5.10;;;17.40;99.90;;;;;;5091907;28;20087;-56
2023/08/18 06:25:06;;;;;;;8.60;5.05;;;17.50;99.90;;;;;;5094129;28;20070;-57
2023/08/18 06:27:32;;;;;;;11.52;5.32;;;17.40;99.90;;;;;;5092907;28;20060;-56
2023/08/18 06:29:58;;;;;;;11.50;5.18;;;17.40;99.90;;;;;;5093077;28;20040;-57
2023/08/18 06:32:24;;;;;;;8.52;5.07;;;17.50;99.90;;;;;;5094927;28;20051;-56
2023/08/18 06:34:52;;;;;;;10.25;5.53;;;17.40;99.90;;;;;;5095010;28;20051;-57
2023/08/18 06:37:19;;;;;;;11.20;5.38;;;17.50;99.90;;;;;;5097130;28;20055;-57
2023/08/18 06:39:45;;;;;;;10.02;5.55;;;17.50;99.90;;;;;;5076381;28;20121;-56
2023/08/18 06:42:12;;;;;;;10.48;5.50;;;17.50;99.90;;;;;;5096707;28;20411;-57
2023/08/18 06:44:38;;;;;;;8.93;4.85;;;17.50;99.90;;;;;;5090104;28;20040;-56
2023/08/18 06:47:04;;;;;;;10.88;5.85;;;17.50;99.90;;;;;;5087132;28;20051;-57
2023/08/18 06:49:29;;;;;;;9.38;5.28;;;17.50;99.90;;;;;;5086905;28;20503;-56
2023/08/18 06:51:55;;;;;;;11.63;5.13;;;17.50;99.90;;;;;;5083496;28;20500;-57
2023/08/18 06:54:21;;;;;;;8.68;5.05;;;17.50;99.90;;;;;;5076698;28;20107;-57
2023/08/18 06:56:46;;;;;;;9.88;5.50;;;17.70;99.90;;;;;;5089359;28;20055;-57
2023/08/18 06:59:13;;;;;;;10.05;5.32;;;17.70;99.90;;;;;;5097023;28;20063;-57
2023/08/18 07:01:39;;;;;;;9.95;5.18;;;17.60;99.90;;;;;;5081891;28;20114;-57
2023/08/18 07:04:06;;;;;;;9.07;5.50;;;17.70;99.90;;;;;;5080038;28;20072;-57
2023/08/18 07:06:32;;;;;;;12.18;5.68;;;17.90;99.90;;;;;;5096327;28;20052;-56
2023/08/18 07:08:58;;;;;;;10.18;5.40;;;17.90;99.90;;;;;;5095514;28;20139;-56
2023/08/18 07:11:24;;;;;;;9.85;4.93;;;17.90;99.90;;;;;;5097428;28;20593;-57
2023/08/18 07:13:49;;;;;;;9.80;5.47;;;17.90;99.90;;;;;;5094953;28;20101;-55
2023/08/18 07:16:15;;;;;;;10.85;6.05;;;17.90;99.90;;;;;;5096768;28;20097;-56
2023/08/18 07:18:41;;;;;;;9.80;5.28;;;17.90;99.90;;;;;;5095042;28;20044;-55
2023/08/18 07:21:06;;;;;;;9.25;5.60;;;18.00;99.90;;;;;;5096316;28;20067;-57
2023/08/18 07:23:32;;;;;;;9.90;5.47;;;18.00;99.90;;;;;;5096142;28;20050;-57
2023/08/18 07:25:58;;;;;;;10.57;5.22;;;18.10;99.90;;;;;;5095413;28;20040;-56
2023/08/18 07:28:24;;;;;;;10.80;6.22;;;18.10;99.90;;;;;;5097025;28;20051;-57
2023/08/18 07:30:50;;;;;;;11.50;5.93;;;18.00;99.90;;;;;;5094679;28;20051;-57
2023/08/18 07:33:16;;;;;;;11.15;6.07;;;18.00;99.90;;;;;;5096306;28;20052;-56
2023/08/18 07:35:41;;;;;;;10.80;5.95;;;18.10;99.90;;;;;;5094798;28;20100;-57
2023/08/18 07:38:07;;;;;;;9.38;5.65;;;18.00;99.90;;;;;;5096473;28;20803;-56
2023/08/18 07:40:33;;;;;;;9.68;6.45;;;18.10;99.90;;;;;;5095237;28;20040;-56
2023/08/18 07:42:58;;;;;;;11.73;6.60;;;18.10;99.90;;;;;;5094958;28;20036;-56
2023/08/18 07:45:25;;;;;;;13.90;6.78;;;18.00;99.90;;;;;;5077843;28;20044;-56
2023/08/18 07:47:51;;;;;;;12.70;8.13;;;18.00;99.90;;;;;;5094366;28;20274;-56
2023/08/18 07:50:17;;;;;;;10.90;7.63;;;18.10;99.90;;;;;;5076017;28;20044;-56
2023/08/18 07:52:43;;;;;;;10.95;7.32;;;18.00;99.90;;;;;;5074228;28;20056;-56
2023/08/18 07:55:09;;;;;;;12.82;7.35;;;18.00;99.90;;;;;;5077068;28;20554;-57
2023/08/18 07:57:35;;;;;;;13.75;7.22;;;18.20;99.90;;;;;;5094757;28;20044;-57
2023/08/18 08:00:07;;;;;;;13.27;7.07;;;18.00;99.90;;;;;;5094629;28;20084;-56
2023/08/18 08:02:33;;;;;;;10.80;7.18;;;18.00;99.90;;;;;;5096119;28;20044;-57
2023/08/18 08:04:58;;;;;;;12.70;7.88;;;18.10;99.90;;;;;;5093827;28;20040;-57
2023/08/18 08:07:24;;;;;;;12.93;6.85;;;18.20;99.90;;;;;;5096164;28;20055;-57
2023/08/18 08:09:52;;;;;;;11.27;6.80;;;18.10;99.90;;;;;;5093836;28;20048;-57
2023/08/18 08:12:17;;;;;;;13.98;6.90;;;18.10;99.90;;;;;;5095156;28;20071;-57
2023/08/18 08:14:43;;;;;;;11.32;7.03;;;18.20;99.90;;;;;;5075593;28;20044;-57
2023/08/18 08:17:09;;;;;;;12.25;7.20;;;18.10;99.90;;;;;;5084758;28;20040;-57
2023/08/18 08:19:35;;;;;;;13.35;7.63;;;18.20;99.90;;;;;;5083904;28;20058;-56
2023/08/18 08:22:03;;;;;;;11.90;7.57;;;18.20;99.90;;;;;;5077528;28;20044;-57
2023/08/18 08:24:29;;;;;;;14.10;7.50;;;18.20;99.90;;;;;;5074870;28;20055;-57
2023/08/18 08:26:55;;;;;;;13.77;8.70;;;18.20;99.90;;;;;;5072156;28;20099;-57
2023/08/18 08:29:20;;;;;;;11.93;8.10;;;18.40;99.90;;;;;;5074321;28;20080;-57
2023/08/18 08:31:46;;;;;;;14.15;7.95;;;18.40;99.90;;;;;;5073317;28;20036;-57
2023/08/18 08:34:12;;;;;;;13.35;7.88;;;18.50;99.90;;;;;;5074227;28;20499;-57
2023/08/18 08:36:37;;;;;;;12.80;8.15;;;18.60;99.90;;;;;;5074806;28;20037;-57
2023/08/18 08:39:03;;;;;;;13.60;7.95;;;18.70;99.90;;;;;;5077311;28;20047;-56
2023/08/18 08:41:30;;;;;;;12.65;7.43;;;18.60;99.90;;;;;;5081912;28;20032;-57
2023/08/18 08:43:55;;;;;;;15.75;7.82;;;18.70;99.90;;;;;;5088291;28;20087;-58
2023/08/18 08:46:22;;;;;;;15.77;7.28;;;18.60;99.90;;;;;;5092497;28;20063;-57
2023/08/18 08:48:49;;;;;;;14.27;8.25;;;18.70;99.90;;;;;;5094289;28;20446;-58
2023/08/18 08:51:16;;;;;;;14.05;8.32;;;18.80;99.90;;;;;;5096111;28;20067;-58
2023/08/18 08:53:49;;;;;;;13.95;7.32;;;19.00;99.90;;;;;;5098191;28;20077;-57
2023/08/18 08:56:19;;;;;;;14.90;7.78;;;19.10;99.90;;;;;;5096746;28;20036;-57
2023/08/18 08:58:46;;;;;;;16.88;8.00;;;19.10;99.90;;;;;;5099402;28;20067;-58
2023/08/18 09:01:12;;;;;;;18.02;7.85;;;19.20;99.90;;;;;;5097017;28;20060;-57
2023/08/18 09:03:39;;;;;;;16.83;7.43;;;19.20;99.90;;;;;;5099031;28;20044;-57
2023/08/18 09:06:06;;;;;;;12.80;7.05;;;19.20;99.90;;;;;;5097626;28;20044;-56
2023/08/18 09:08:32;;;;;;;14.45;7.68;;;19.10;99.90;;;;;;5097936;28;20052;-57
2023/08/18 09:10:58;;;;;;;12.98;7.00;;;19.30;99.90;;;;;;5099008;28;20052;-57
2023/08/18 09:13:24;;;;;;;12.07;6.50;;;19.40;99.90;;;;;;5097110;28;20575;-57
2023/08/18 09:15:50;;;;;;;13.77;6.20;;;19.50;99.90;;;;;;5099213;28;20051;-58
2023/08/18 09:18:16;;;;;;;12.88;6.22;;;19.50;99.90;;;;;;5096410;28;20040;-57
2023/08/18 09:20:43;;;;;;;13.23;5.63;;;19.40;99.90;;;;;;5098834;28;20173;-57
2023/08/18 09:23:08;;;;;;;14.95;6.90;;;19.40;99.90;;;;;;5096983;28;20040;-57
2023/08/18 09:25:34;;;;;;;13.38;6.07;;;19.50;99.90;;;;;;5098253;28;20089;-57
2023/08/18 09:28:04;;;;;;;15.50;6.13;;;19.50;99.90;;;;;;5098649;28;20120;-57
2023/08/18 09:30:31;;;;;;;11.52;5.63;;;19.60;99.90;;;;;;5096914;28;20040;-57
2023/08/18 09:33:00;;;;;;;10.90;5.10;;;19.70;99.90;;;;;;5098971;28;20043;-57
2023/08/18 09:35:26;;;;;;;13.90;5.15;;;19.70;99.90;;;;;;5096754;28;20048;-56
2023/08/18 09:37:58;;;;;;;11.07;5.15;;;19.60;99.90;;;;;;5098875;28;20111;-58
2023/08/18 09:40:25;;;;;;;13.50;5.25;;;19.80;99.90;;;;;;5097123;28;20044;-57
2023/08/18 09:42:51;;;;;;;13.10;5.22;;;19.70;99.90;;;;;;5097596;28;20052;-57
2023/08/18 09:45:19;;;;;;;10.70;5.07;;;19.80;99.90;;;;;;5098528;28;20066;-57
2023/08/18 09:47:48;;;;;;;11.95;5.00;;;20.00;99.90;;;;;;5078452;28;20093;-57
2023/08/18 09:50:14;;;;;;;12.27;5.15;;;20.10;99.90;;;;;;5098317;28;20055;-57
2023/08/18 09:52:41;;;;;;;10.60;5.28;;;20.00;99.90;;;;;;5096223;28;20052;-57
2023/08/18 09:55:12;;;;;;;12.30;6.25;;;20.10;99.90;;;;;;5096429;28;20044;-59
2023/08/18 09:57:49;;;;;;;9.90;5.90;;;20.10;99.90;;;;;;5077037;28;20036;-57
2023/08/18 10:00:17;;;;;;;9.55;5.88;;;20.20;99.90;;;;;;5076474;28;20052;-57
2023/08/18 10:02:47;;;;;;;12.50;7.45;;;20.10;99.90;;;;;;5078255;28;20056;-57
2023/08/18 10:05:14;;;;;;;10.00;6.38;;;20.20;99.90;;;;;;5076024;28;20052;-62
2023/08/18 10:07:40;;;;;;;12.73;6.03;;;20.30;99.90;;;;;;5080239;28;20063;-57
2023/08/18 10:10:08;;;;;;;9.30;5.15;;;20.50;99.90;;;;;;5079648;28;20076;-57
2023/08/18 10:12:33;;;;;;;10.02;5.78;;;20.50;99.90;;;;;;5081109;28;20047;-57
2023/08/18 10:15:00;;;;;;;9.93;6.47;;;20.50;99.90;;;;;;5081000;28;20068;-57
2023/08/18 10:17:26;;;;;;;9.95;7.00;;;20.50;99.90;;;;;;5079534;28;20113;-57
2023/08/18 10:19:58;;;;;;;12.00;5.93;;;20.50;99.90;;;;;;5081237;28;20127;-57
2023/08/18 10:22:26;;;;;;;10.80;6.40;;;20.50;99.90;;;;;;5078481;28;20032;-58
2023/08/18 10:24:53;;;;;;;9.07;6.15;;;20.60;99.90;;;;;;5079954;28;20029;-57
2023/08/18 10:27:28;;;;;;;10.40;6.18;;;20.60;99.90;;;;;;5079680;28;20048;-57
2023/08/18 10:30:00;;;;;;;10.20;6.85;;;20.70;99.90;;;;;;5080521;28;20104;-60
2023/08/18 10:32:26;;;;;;;10.20;6.30;;;20.70;99.90;;;;;;5081248;28;20040;-58
2023/08/18 10:34:52;;;;;;;12.27;5.95;;;20.70;99.90;;;;;;5078949;28;20040;-58
2023/08/18 10:37:22;;;;;;;9.63;6.60;;;20.80;99.90;;;;;;5081097;28;20167;-58
2023/08/18 10:39:50;;;;;;;9.05;5.95;;;21.10;99.90;;;;;;5078982;28;20098;-61
2023/08/18 10:42:16;;;;;;;11.32;7.28;;;21.20;99.90;;;;;;5080967;28;20090;-58
2023/08/18 10:45:05;;;;;;;12.68;7.15;;;21.20;99.90;;;;;;5074850;28;20052;-57
2023/08/18 10:47:32;;;;;;;12.43;7.78;;;21.30;99.90;;;;;;5089276;28;20511;-58
2023/08/18 10:49:59;;;;;;;9.65;7.32;;;21.30;99.90;;;;;;5089278;28;20044;-57
2023/08/18 10:52:30;;;;;;;12.45;8.18;;;21.20;99.90;;;;;;5098798;28;20040;-57
2023/08/18 10:54:56;;;;;;;9.98;7.13;;;21.20;99.90;;;;;;5100119;28;20107;-58
2023/08/18 10:57:23;;;;;;;12.40;7.80;;;21.20;99.90;;;;;;5065992;28;20320;-58
2023/08/18 10:59:49;;;;;;;14.75;7.97;;;21.30;99.90;;;;;;5069317;28;20078;-58
2023/08/18 11:02:16;;;;;;;12.88;9.48;;;21.40;99.90;;;;;;5089360;28;20055;-57
2023/08/18 11:04:42;;;;;;;10.93;7.38;;;21.40;99.90;;;;;;5088696;28;20586;-58
2023/08/18 11:07:08;;;;;;;13.15;7.28;;;21.40;99.90;;;;;;5090654;28;20050;-58
2023/08/18 11:09:36;;;;;;;12.23;6.72;;;21.50;99.90;;;;;;5079854;28;20062;-57
2023/08/18 11:12:03;;;;;;;11.88;7.45;;;21.60;99.90;;;;;;5061315;28;20058;-58
2023/08/18 11:14:29;;;;;;;10.77;7.35;;;21.60;99.90;;;;;;5059222;28;20135;-57
2023/08/18 11:16:55;;;;;;;11.95;7.80;;;21.60;99.90;;;;;;5079007;28;20044;-57
2023/08/18 11:19:21;;;;;;;9.48;6.82;;;21.70;99.90;;;;;;5078160;28;20055;-57
2023/08/18 11:21:47;;;;;;;10.52;7.60;;;21.70;99.90;;;;;;5079346;28;20099;-57
2023/08/18 11:24:12;;;;;;;12.20;7.47;;;21.70;99.90;;;;;;5079043;28;20045;-57
2023/08/18 11:26:39;;;;;;;12.45;8.75;;;21.70;99.90;;;;;;5077482;28;20056;-57
2023/08/18 11:29:08;;;;;;;12.02;7.28;;;21.70;99.90;;;;;;5078321;28;20056;-58
2023/08/18 11:31:34;;;;;;;10.30;7.13;;;21.80;99.90;;;;;;5076844;28;20071;-57
2023/08/18 11:34:00;;;;;;;11.30;8.05;;;21.70;99.90;;;;;;5077460;28;20484;-59
2023/08/18 11:36:30;;;;;;;11.60;7.40;;;21.70;99.90;;;;;;5077600;28;20045;-56
2023/08/18 11:39:09;;;;;;;12.43;7.57;;;21.90;99.90;;;;;;5076398;28;20573;-57
2023/08/18 11:41:45;;;;;;;9.90;7.28;;;22.00;99.90;;;;;;5078737;28;20048;-57
2023/08/18 11:44:11;;;;;;;10.00;7.25;;;22.30;99.90;;;;;;5090463;28;20154;-57
2023/08/18 11:46:38;;;;;;;13.57;8.30;;;22.30;99.90;;;;;;5098482;28;20047;-57
2023/08/18 11:49:18;;;;;;;11.35;8.27;;;22.40;99.90;;;;;;5097173;28;20044;-57
2023/08/18 11:52:05;;;;;;;11.00;8.00;;;22.50;99.90;;;;;;5096614;28;20051;-57
2023/08/18 11:54:35;;;;;;;12.35;8.25;;;22.60;99.90;;;;;;5080120;28;20441;-58
2023/08/18 11:57:06;;;;;;;10.67;7.77;;;22.60;99.90;;;;;;5079686;28;20045;-58
2023/08/18 11:59:32;;;;;;;11.93;8.37;;;22.50;99.90;;;;;;5077595;28;20122;-57
2023/08/18 12:02:00;;;;;;;13.00;8.93;;;22.60;99.90;;;;;;5077122;28;20080;-57
2023/08/18 12:04:30;;;;;;;12.18;7.40;;;22.70;99.90;;;;;;5076943;28;20048;-58
2023/08/18 12:06:57;;;;;;;10.05;7.60;;;22.80;99.90;;;;;;5078470;28;20025;-58
2023/08/18 12:09:23;;;;;;;11.80;8.48;;;22.90;99.90;;;;;;5058260;28;20080;-57
2023/08/18 12:11:49;;;;;;;10.93;7.28;;;22.80;99.90;;;;;;5078250;28;20042;-58
2023/08/18 12:14:16;;;;;;;10.73;7.50;;;22.70;99.90;;;;;;5076319;28;20059;-57
2023/08/18 12:16:42;;;;;;;12.30;8.25;;;22.90;99.90;;;;;;5077309;28;20529;-58
2023/08/18 12:19:08;;;;;;;11.43;7.15;;;22.80;99.90;;;;;;5076642;28;20033;-57
2023/08/18 12:21:38;;;;;;;11.32;8.05;;;23.00;99.90;;;;;;5076183;28;20043;-58
2023/08/18 12:24:05;;;;;;;10.95;7.22;;;23.00;99.90;;;;;;5078015;28;20041;-58
2023/08/18 12:26:31;;;;;;;11.73;7.85;;;23.30;99.90;;;;;;5075127;28;20063;-58
2023/08/18 12:28:57;;;;;;;10.55;7.63;;;23.30;99.90;;;;;;5077301;28;20040;-58
2023/08/18 12:31:24;;;;;;;11.85;7.50;;;23.30;99.10;;;;;;5075334;28;20076;-58
2023/08/18 12:33:53;;;;;;;12.10;7.45;;;23.40;98.30;;;;;;5077273;28;20045;-58
2023/08/18 12:36:19;;;;;;;11.73;7.68;;;23.50;99.90;;;;;;5076887;28;20048;-56
2023/08/18 12:38:48;;;;;;;8.85;7.40;;;23.60;97.40;;;;;;5075850;28;20048;-58
2023/08/18 12:41:14;;;;;;;11.45;7.60;;;23.50;99.20;;;;;;5077540;28;20051;-58